createdAt,value
2019-05-15T00:00:38.708Z,304.93
2019-05-15T00:01:41.135Z,304.93
2019-05-15T00:02:38.741Z,305.82
2019-05-15T00:03:39.108Z,305.46
2019-05-15T00:04:38.346Z,305.01
2019-05-15T00:05:39.010Z,304.97
2019-05-15T00:06:39.131Z,305.24
2019-05-15T00:07:39.222Z,305.16
2019-05-15T00:08:38.728Z,305.05
2019-05-15T00:09:41.634Z,304.75
2019-05-15T00:10:38.886Z,305.30
2019-05-15T00:11:38.992Z,305.26
2019-05-15T00:12:39.468Z,305.47
2019-05-15T00:13:38.975Z,305.01
2019-05-15T00:14:38.879Z,305.68
2019-05-15T00:15:39.804Z,305.33
2019-05-15T00:16:38.590Z,305.36
2019-05-15T00:17:39.306Z,305.32
2019-05-15T00:18:39.086Z,305.20
2019-05-15T00:19:38.911Z,305.39
2019-05-15T00:20:39.397Z,305.27
2019-05-15T00:21:38.299Z,305.75
2019-05-15T00:22:38.874Z,304.94
2019-05-15T00:23:38.784Z,305.44
2019-05-15T00:24:38.149Z,305.21
2019-05-15T00:25:39.469Z,305.59
2019-05-15T00:26:38.537Z,305.62
2019-05-15T00:27:38.621Z,305.42
2019-05-15T00:28:38.839Z,305.37
2019-05-15T00:29:38.379Z,305.03
2019-05-15T00:30:38.710Z,305.23
2019-05-15T00:31:38.807Z,304.99
2019-05-15T00:32:39.249Z,305.08
2019-05-15T00:33:39.470Z,305.21
2019-05-15T00:34:37.911Z,305.11
2019-05-15T00:35:39.409Z,305.18
2019-05-15T00:36:38.251Z,305.12
2019-05-15T00:37:38.696Z,305.08
2019-05-15T00:38:39.118Z,305.28
2019-05-15T00:39:39.087Z,305.17
2019-05-15T00:40:39.220Z,305.27
2019-05-15T00:41:50.881Z,306.11
2019-05-15T00:42:38.685Z,305.28
2019-05-15T00:43:38.639Z,305.30
2019-05-15T00:44:38.714Z,305.54
2019-05-15T00:45:38.543Z,305.12
2019-05-15T00:46:38.422Z,305.03
2019-05-15T00:47:39.372Z,305.69
2019-05-15T00:48:39.490Z,305.38
2019-05-15T00:49:38.240Z,305.92
2019-05-15T00:50:39.026Z,305.51
2019-05-15T00:51:39.029Z,305.26
2019-05-15T00:52:39.073Z,305.54
2019-05-15T00:53:38.946Z,305.21
2019-05-15T00:54:38.891Z,305.40
2019-05-15T00:55:37.973Z,305.00
2019-05-15T00:56:38.953Z,305.24
2019-05-15T00:57:39.357Z,304.96
2019-05-15T00:58:37.022Z,305.48
2019-05-15T00:59:38.871Z,305.34
2019-05-15T01:00:38.122Z,305.58
2019-05-15T01:01:38.187Z,305.12
2019-05-15T01:02:38.779Z,304.84
2019-05-15T01:03:38.725Z,305.43
2019-05-15T01:04:38.937Z,304.96
2019-05-15T01:05:38.795Z,305.43
2019-05-15T01:06:38.945Z,305.34
2019-05-15T01:07:38.966Z,305.14
2019-05-15T01:08:39.056Z,305.36
2019-05-15T01:09:38.459Z,304.99
2019-05-15T01:10:38.574Z,305.28
2019-05-15T01:11:38.227Z,305.33
2019-05-15T01:12:38.000Z,305.24
2019-05-15T01:13:38.811Z,305.07
2019-05-15T01:14:38.576Z,304.86
2019-05-15T01:15:38.723Z,305.28
2019-05-15T01:16:38.329Z,305.17
2019-05-15T01:17:38.979Z,305.70
2019-05-15T01:18:38.488Z,305.91
2019-05-15T01:19:37.969Z,305.34
2019-05-15T01:20:38.926Z,305.62
2019-05-15T01:21:38.498Z,305.15
2019-05-15T01:22:39.048Z,305.28
2019-05-15T01:23:38.827Z,305.77
2019-05-15T01:24:38.746Z,305.52
2019-05-15T01:25:38.647Z,305.40
2019-05-15T01:26:38.515Z,305.13
2019-05-15T01:27:38.647Z,305.21
2019-05-15T01:28:38.401Z,305.43
2019-05-15T01:29:44.568Z,305.65
2019-05-15T01:30:39.369Z,305.41
2019-05-15T01:31:38.029Z,305.68
2019-05-15T01:32:39.113Z,305.42
2019-05-15T01:33:38.815Z,305.68
2019-05-15T01:34:38.424Z,305.59
2019-05-15T01:35:38.344Z,305.11
2019-05-15T01:36:38.243Z,305.48
2019-05-15T01:37:38.785Z,305.34
2019-05-15T01:38:38.636Z,305.56
2019-05-15T01:39:38.529Z,305.27
2019-05-15T01:40:38.479Z,305.39
2019-05-15T01:41:38.459Z,305.38
2019-05-15T01:42:38.647Z,305.38
2019-05-15T01:43:38.104Z,305.33
2019-05-15T01:44:38.801Z,305.80
2019-05-15T01:45:39.059Z,305.06
2019-05-15T01:46:39.101Z,305.36
2019-05-15T01:47:38.579Z,305.36
2019-05-15T01:48:38.686Z,305.18
2019-05-15T01:49:38.393Z,305.49
2019-05-15T01:50:38.690Z,305.42
2019-05-15T01:51:38.362Z,305.40
2019-05-15T01:52:38.661Z,304.98
2019-05-15T01:53:38.342Z,305.86
2019-05-15T01:54:38.369Z,305.46
2019-05-15T01:55:36.397Z,305.58
2019-05-15T01:56:38.570Z,305.71
2019-05-15T01:57:38.430Z,305.57
2019-05-15T01:58:38.221Z,305.44
2019-05-15T01:59:36.347Z,305.60
2019-05-15T02:00:38.585Z,305.43
2019-05-15T02:01:38.927Z,305.86
2019-05-15T02:02:38.653Z,305.40
2019-05-15T02:03:38.324Z,305.03
2019-05-15T02:04:36.304Z,305.84
2019-05-15T02:05:36.283Z,305.39
2019-05-15T02:06:38.904Z,305.56
2019-05-15T02:07:38.745Z,305.43
2019-05-15T02:08:38.965Z,305.64
2019-05-15T02:09:38.425Z,305.75
2019-05-15T02:10:38.781Z,305.40
2019-05-15T02:11:38.264Z,305.38
2019-05-15T02:12:38.485Z,305.27
2019-05-15T02:13:36.212Z,305.81
2019-05-15T02:14:36.193Z,305.81
2019-05-15T02:15:36.180Z,305.63
2019-05-15T02:16:36.163Z,305.67
2019-05-15T02:17:36.149Z,305.88
2019-05-15T02:18:36.168Z,305.09
2019-05-15T02:19:36.138Z,305.57
2019-05-15T02:20:38.612Z,305.60
2019-05-15T02:21:37.991Z,305.41
2019-05-15T02:22:36.108Z,305.17
2019-05-15T02:23:36.091Z,305.36
2019-05-15T02:24:36.082Z,305.33
2019-05-15T02:25:36.081Z,305.32
2019-05-15T02:26:36.057Z,305.29
2019-05-15T02:27:38.950Z,305.88
2019-05-15T02:28:38.178Z,305.92
2019-05-15T02:29:37.821Z,305.15
2019-05-15T02:30:39.654Z,306.02
2019-05-15T02:31:38.879Z,305.36
2019-05-15T02:32:39.102Z,305.44
2019-05-15T02:33:36.007Z,305.48
2019-05-15T02:34:39.195Z,305.11
2019-05-15T02:35:38.882Z,305.59
2019-05-15T02:36:35.952Z,305.51
2019-05-15T02:37:35.944Z,305.65
2019-05-15T02:38:35.944Z,305.46
2019-05-15T02:39:38.617Z,305.61
2019-05-15T02:40:35.902Z,305.17
2019-05-15T02:41:39.406Z,305.27
2019-05-15T02:42:35.898Z,305.34
2019-05-15T02:43:38.728Z,305.31
2019-05-15T02:44:35.877Z,305.40
2019-05-15T02:45:37.847Z,305.97
2019-05-15T02:46:39.152Z,305.19
2019-05-15T02:47:35.836Z,305.54
2019-05-15T02:48:35.818Z,305.57
2019-05-15T02:49:38.968Z,305.52
2019-05-15T02:50:38.813Z,305.61
2019-05-15T02:51:35.788Z,305.28
2019-05-15T02:52:38.825Z,305.31
2019-05-15T02:53:39.209Z,306.15
2019-05-15T02:54:35.744Z,305.12
2019-05-15T02:55:35.737Z,305.38
2019-05-15T02:56:38.956Z,305.69
2019-05-15T02:57:38.971Z,305.26
2019-05-15T02:58:35.723Z,305.57
2019-05-15T02:59:35.711Z,305.68
2019-05-15T03:00:43.984Z,305.65
2019-05-15T03:01:39.944Z,305.65
2019-05-15T03:02:35.653Z,305.43
2019-05-15T03:03:38.383Z,305.70
2019-05-15T03:04:35.664Z,305.60
2019-05-15T03:05:35.633Z,305.75
2019-05-15T03:06:38.624Z,305.18
2019-05-15T03:07:35.600Z,306.03
2019-05-15T03:08:35.606Z,305.67
2019-05-15T03:09:35.609Z,305.26
2019-05-15T03:10:35.585Z,305.40
2019-05-15T03:11:35.565Z,305.52
2019-05-15T03:12:35.540Z,305.23
2019-05-15T03:13:35.566Z,305.55
2019-05-15T03:14:35.548Z,305.19
2019-05-15T03:15:35.525Z,305.50
2019-05-15T03:16:35.522Z,305.59
2019-05-15T03:17:35.507Z,305.30
2019-05-15T03:18:35.495Z,305.39
2019-05-15T03:19:35.496Z,305.60
2019-05-15T03:20:38.630Z,305.79
2019-05-15T03:21:38.643Z,305.70
2019-05-15T03:22:35.457Z,305.98
2019-05-15T03:23:35.443Z,305.45
2019-05-15T03:24:35.427Z,305.87
2019-05-15T03:25:35.405Z,305.68
2019-05-15T03:26:35.391Z,305.58
2019-05-15T03:27:35.400Z,305.96
2019-05-15T03:28:38.740Z,305.59
2019-05-15T03:29:35.379Z,305.55
2019-05-15T03:31:07.071Z,305.85
2019-05-15T03:31:56.766Z,305.55
2019-05-15T03:32:50.747Z,305.30
2019-05-15T03:33:43.899Z,305.76
2019-05-15T03:34:44.592Z,305.46
2019-05-15T03:35:41.847Z,305.61
2019-05-15T03:36:36.312Z,305.97
2019-05-15T03:37:35.313Z,305.60
2019-05-15T03:38:35.267Z,305.50
2019-05-15T03:39:35.278Z,306.30
2019-05-15T03:40:35.254Z,305.75
2019-05-15T03:41:35.263Z,305.76
2019-05-15T03:42:35.235Z,305.91
2019-05-15T03:43:35.228Z,305.87
2019-05-15T03:44:35.208Z,306.18
2019-05-15T03:45:35.195Z,305.88
2019-05-15T03:46:35.177Z,306.32
2019-05-15T03:47:35.192Z,306.08
2019-05-15T03:48:35.166Z,306.07
2019-05-15T03:49:35.174Z,305.94
2019-05-15T03:50:35.145Z,305.96
2019-05-15T03:51:35.160Z,305.89
2019-05-15T03:52:35.113Z,305.48
2019-05-15T03:53:35.110Z,305.69
2019-05-15T03:54:35.113Z,305.77
2019-05-15T03:55:35.101Z,305.77
2019-05-15T03:56:35.068Z,305.67
2019-05-15T03:57:35.073Z,305.71
2019-05-15T03:58:35.048Z,305.72
2019-05-15T03:59:35.040Z,305.90
2019-05-15T04:00:35.044Z,305.66
2019-05-15T04:01:39.776Z,305.99
2019-05-15T04:02:38.988Z,306.10
2019-05-15T04:03:35.038Z,305.77
2019-05-15T04:04:34.992Z,306.03
2019-05-15T04:05:34.978Z,305.41
2019-05-15T04:06:34.969Z,305.74
2019-05-15T04:07:34.971Z,305.95
2019-05-15T04:08:34.960Z,306.00
2019-05-15T04:09:34.968Z,306.27
2019-05-15T04:10:34.923Z,305.66
2019-05-15T04:11:34.930Z,305.81
2019-05-15T04:12:34.915Z,306.19
2019-05-15T04:13:34.910Z,305.50
2019-05-15T04:14:34.890Z,305.77
2019-05-15T04:15:34.874Z,305.78
2019-05-15T04:16:34.880Z,305.95
2019-05-15T04:17:34.842Z,305.70
2019-05-15T04:18:34.834Z,306.46
2019-05-15T04:19:34.841Z,305.95
2019-05-15T04:20:34.839Z,305.95
2019-05-15T04:21:34.823Z,306.06
2019-05-15T04:22:34.796Z,305.74
2019-05-15T04:23:34.784Z,305.63
2019-05-15T04:24:34.786Z,305.92
2019-05-15T04:25:34.753Z,305.84
2019-05-15T04:26:34.747Z,306.35
2019-05-15T04:27:34.748Z,306.15
2019-05-15T04:28:34.722Z,305.80
2019-05-15T04:29:34.937Z,305.99
2019-05-15T04:30:34.703Z,306.02
2019-05-15T04:31:50.648Z,305.60
2019-05-15T04:32:35.684Z,305.87
2019-05-15T04:33:34.671Z,306.12
2019-05-15T04:34:34.657Z,305.41
2019-05-15T04:35:34.667Z,305.59
2019-05-15T04:36:34.634Z,306.02
2019-05-15T04:37:34.635Z,305.97
2019-05-15T04:38:34.613Z,305.96
2019-05-15T04:39:34.612Z,305.72
2019-05-15T04:40:34.612Z,305.69
2019-05-15T04:41:34.599Z,306.10
2019-05-15T04:42:34.576Z,306.02
2019-05-15T04:43:41.305Z,306.11
2019-05-15T04:44:35.555Z,306.06
2019-05-15T04:45:35.422Z,305.85
2019-05-15T04:46:34.537Z,305.81
2019-05-15T04:47:34.520Z,306.28
2019-05-15T04:48:34.505Z,305.90
2019-05-15T04:49:34.497Z,306.00
2019-05-15T04:50:34.495Z,306.12
2019-05-15T04:51:34.511Z,306.06
2019-05-15T04:52:34.468Z,306.00
2019-05-15T04:53:34.497Z,306.19
2019-05-15T04:54:34.446Z,305.58
2019-05-15T04:55:34.455Z,306.02
2019-05-15T04:56:34.413Z,306.22
2019-05-15T04:57:34.558Z,305.95
2019-05-15T04:58:34.412Z,305.75
2019-05-15T04:59:34.397Z,305.81
2019-05-15T05:00:34.417Z,306.17
2019-05-15T05:01:34.373Z,306.48
2019-05-15T05:02:34.355Z,306.26
2019-05-15T05:03:34.900Z,306.18
2019-05-15T05:04:34.327Z,305.73
2019-05-15T05:05:34.328Z,305.94
2019-05-15T05:06:34.322Z,306.16
2019-05-15T05:07:34.303Z,306.21
2019-05-15T05:08:34.282Z,306.00
2019-05-15T05:09:34.274Z,306.51
2019-05-15T05:10:34.282Z,305.65
2019-05-15T05:11:34.265Z,306.14
2019-05-15T05:12:34.249Z,306.08
2019-05-15T05:13:34.226Z,306.26
2019-05-15T05:14:34.215Z,305.86
2019-05-15T05:15:34.216Z,305.73
2019-05-15T05:16:34.201Z,306.16
2019-05-15T05:17:34.203Z,306.03
2019-05-15T05:18:34.182Z,306.04
2019-05-15T05:19:34.170Z,306.68
2019-05-15T05:20:34.155Z,306.08
2019-05-15T05:21:34.138Z,306.38
2019-05-15T05:22:34.137Z,305.97
2019-05-15T05:23:34.111Z,305.99
2019-05-15T05:24:34.107Z,306.00
2019-05-15T05:25:34.116Z,305.74
2019-05-15T05:26:34.094Z,306.31
2019-05-15T05:27:34.080Z,306.17
2019-05-15T05:28:34.065Z,306.18
2019-05-15T05:29:34.050Z,306.23
2019-05-15T05:30:34.060Z,306.11
2019-05-15T05:31:34.036Z,306.20
2019-05-15T05:32:35.246Z,306.36
2019-05-15T05:33:34.011Z,306.27
2019-05-15T05:34:34.001Z,306.45
2019-05-15T05:35:34.004Z,306.52
2019-05-15T05:36:33.992Z,305.98
2019-05-15T05:37:33.969Z,306.35
2019-05-15T05:38:33.965Z,306.34
2019-05-15T05:39:33.954Z,306.14
2019-05-15T05:40:33.942Z,305.62
2019-05-15T05:41:33.917Z,306.36
2019-05-15T05:42:33.912Z,305.90
2019-05-15T05:43:33.893Z,306.53
2019-05-15T05:44:33.898Z,306.08
2019-05-15T05:45:33.901Z,305.81
2019-05-15T05:46:33.888Z,306.21
2019-05-15T05:47:33.850Z,306.20
2019-05-15T05:48:33.839Z,305.94
2019-05-15T05:49:33.841Z,305.98
2019-05-15T05:50:33.832Z,306.24
2019-05-15T05:51:33.830Z,306.02
2019-05-15T05:52:33.790Z,305.75
2019-05-15T05:53:33.782Z,306.37
2019-05-15T05:54:33.777Z,306.27
2019-05-15T05:55:33.807Z,306.04
2019-05-15T05:56:33.757Z,306.01
2019-05-15T05:57:33.762Z,306.28
2019-05-15T05:58:33.744Z,306.27
2019-05-15T05:59:34.422Z,305.93
2019-05-15T06:00:33.703Z,305.91
2019-05-15T06:01:37.060Z,306.22
2019-05-15T06:02:46.559Z,305.90
2019-05-15T06:03:34.683Z,306.05
2019-05-15T06:04:33.667Z,305.90
2019-05-15T06:05:33.657Z,305.94
2019-05-15T06:06:33.654Z,305.93
2019-05-15T06:07:35.398Z,306.17
2019-05-15T06:08:33.637Z,306.15
2019-05-15T06:09:33.619Z,305.65
2019-05-15T06:10:33.603Z,306.02
2019-05-15T06:11:33.626Z,305.66
2019-05-15T06:12:33.576Z,306.04
2019-05-15T06:13:33.578Z,305.90
2019-05-15T06:14:33.554Z,306.04
2019-05-15T06:15:33.544Z,305.78
2019-05-15T06:16:33.555Z,305.64
2019-05-15T06:17:33.527Z,305.95
2019-05-15T06:18:33.504Z,305.41
2019-05-15T06:19:33.501Z,306.02
2019-05-15T06:20:33.500Z,305.84
2019-05-15T06:21:33.498Z,305.91
2019-05-15T06:22:33.473Z,306.21
2019-05-15T06:23:35.653Z,305.99
2019-05-15T06:24:33.440Z,306.14
2019-05-15T06:25:33.437Z,305.61
2019-05-15T06:26:33.433Z,306.21
2019-05-15T06:27:33.410Z,305.96
2019-05-15T06:28:33.405Z,306.28
2019-05-15T06:29:33.411Z,305.98
2019-05-15T06:30:33.387Z,305.95
2019-05-15T06:31:33.382Z,306.17
2019-05-15T06:32:33.351Z,305.99
2019-05-15T06:33:33.347Z,305.70
2019-05-15T06:34:33.334Z,305.85
2019-05-15T06:35:33.337Z,306.07
2019-05-15T06:36:33.335Z,306.46
2019-05-15T06:37:33.305Z,306.66
2019-05-15T06:38:33.282Z,306.25
2019-05-15T06:39:33.270Z,306.55
2019-05-15T06:40:33.294Z,306.73
2019-05-15T06:41:33.984Z,306.28
2019-05-15T06:42:33.259Z,307.16
2019-05-15T06:43:33.258Z,307.11
2019-05-15T06:44:33.220Z,308.08
2019-05-15T06:45:33.197Z,307.59
2019-05-15T06:46:33.217Z,307.40
2019-05-15T06:47:33.192Z,307.70
2019-05-15T06:48:33.192Z,308.02
2019-05-15T06:49:33.174Z,308.16
2019-05-15T06:50:33.157Z,308.64
2019-05-15T06:51:33.152Z,308.77
2019-05-15T06:52:33.144Z,308.44
2019-05-15T06:53:33.137Z,309.21
2019-05-15T06:54:33.121Z,308.75
2019-05-15T06:55:33.105Z,309.01
2019-05-15T06:56:33.102Z,309.37
2019-05-15T06:57:33.085Z,309.40
2019-05-15T06:58:33.073Z,309.33
2019-05-15T06:59:33.075Z,309.00
2019-05-15T07:00:33.064Z,309.21
2019-05-15T07:01:33.064Z,309.26
2019-05-15T07:02:33.024Z,309.02
2019-05-15T07:03:33.037Z,309.22
2019-05-15T07:04:33.007Z,308.98
2019-05-15T07:05:32.990Z,309.25
2019-05-15T07:06:33.003Z,309.11
2019-05-15T07:07:32.981Z,309.19
2019-05-15T07:08:32.955Z,308.34
2019-05-15T07:09:32.942Z,308.75
2019-05-15T07:10:32.957Z,308.09
2019-05-15T07:11:32.938Z,307.73
2019-05-15T07:12:32.921Z,307.61
2019-05-15T07:13:32.907Z,306.95
2019-05-15T07:14:32.897Z,306.38
2019-05-15T07:15:32.913Z,305.96
2019-05-15T07:16:32.877Z,305.99
2019-05-15T07:17:32.866Z,305.55
2019-05-15T07:18:32.855Z,305.64
2019-05-15T07:19:32.841Z,305.11
2019-05-15T07:20:32.841Z,304.84
2019-05-15T07:21:32.824Z,305.20
2019-05-15T07:22:32.825Z,304.63
2019-05-15T07:23:32.796Z,304.77
2019-05-15T07:24:32.787Z,304.43
2019-05-15T07:25:32.780Z,304.66
2019-05-15T07:26:32.763Z,304.26
2019-05-15T07:27:32.779Z,303.91
2019-05-15T07:28:32.735Z,303.80
2019-05-15T07:29:32.722Z,303.41
2019-05-15T07:30:32.712Z,303.84
2019-05-15T07:31:32.708Z,303.62
2019-05-15T07:32:32.717Z,303.20
2019-05-15T07:33:39.431Z,303.82
2019-05-15T07:34:33.697Z,303.47
2019-05-15T07:35:32.700Z,303.63
2019-05-15T07:36:32.653Z,303.34
2019-05-15T07:37:32.651Z,303.66
2019-05-15T07:38:32.640Z,303.63
2019-05-15T07:39:32.631Z,303.70
2019-05-15T07:40:32.613Z,303.92
2019-05-15T07:41:32.606Z,304.30
2019-05-15T07:42:32.599Z,303.93
2019-05-15T07:43:32.577Z,304.74
2019-05-15T07:44:32.577Z,304.77
2019-05-15T07:45:32.563Z,304.28
2019-05-15T07:46:32.550Z,304.43
2019-05-15T07:47:32.554Z,304.35
2019-05-15T07:48:32.533Z,304.62
2019-05-15T07:49:32.512Z,304.16
2019-05-15T07:50:32.508Z,304.55
2019-05-15T07:51:32.504Z,304.05
2019-05-15T07:52:32.502Z,304.23
2019-05-15T07:53:32.472Z,304.05
2019-05-15T07:54:32.447Z,304.05
2019-05-15T07:55:32.449Z,303.88
2019-05-15T07:56:32.441Z,303.62
2019-05-15T07:57:32.438Z,303.64
2019-05-15T07:58:32.422Z,303.89
2019-05-15T07:59:32.415Z,303.70
2019-05-15T08:00:32.388Z,304.10
2019-05-15T08:01:32.392Z,303.95
2019-05-15T08:02:32.379Z,304.33
2019-05-15T08:03:32.361Z,304.15
2019-05-15T08:04:33.008Z,304.74
2019-05-15T08:05:32.349Z,305.13
2019-05-15T08:06:32.353Z,304.60
2019-05-15T08:07:32.338Z,304.37
2019-05-15T08:08:32.305Z,304.40
2019-05-15T08:09:32.292Z,304.64
2019-05-15T08:10:32.292Z,304.34
2019-05-15T08:11:32.279Z,304.92
2019-05-15T08:12:32.274Z,304.36
2019-05-15T08:13:32.244Z,304.40
2019-05-15T08:14:32.261Z,304.80
2019-05-15T08:15:32.224Z,304.32
2019-05-15T08:16:32.221Z,304.45
2019-05-15T08:17:32.232Z,304.29
2019-05-15T08:18:32.205Z,304.52
2019-05-15T08:19:32.190Z,304.17
2019-05-15T08:20:32.177Z,304.38
2019-05-15T08:21:32.158Z,304.51
2019-05-15T08:22:32.156Z,304.35
2019-05-15T08:23:32.148Z,304.77
2019-05-15T08:24:32.142Z,305.48
2019-05-15T08:25:35.329Z,304.88
2019-05-15T08:26:32.108Z,304.49
2019-05-15T08:27:32.939Z,304.67
2019-05-15T08:28:32.095Z,305.11
2019-05-15T08:29:32.085Z,304.82
2019-05-15T08:30:32.080Z,305.08
2019-05-15T08:31:32.063Z,304.32
2019-05-15T08:32:32.070Z,304.18
2019-05-15T08:33:32.033Z,304.00
2019-05-15T08:34:32.018Z,303.83
2019-05-15T08:35:32.010Z,303.88
2019-05-15T08:36:32.013Z,303.37
2019-05-15T08:37:32.005Z,303.46
2019-05-15T08:38:31.996Z,303.32
2019-05-15T08:39:31.973Z,303.32
2019-05-15T08:40:31.960Z,302.95
2019-05-15T08:41:31.950Z,303.12
2019-05-15T08:42:32.364Z,303.37
2019-05-15T08:43:31.931Z,303.11
2019-05-15T08:44:31.914Z,303.57
2019-05-15T08:45:31.903Z,304.03
2019-05-15T08:46:31.883Z,303.08
2019-05-15T08:47:31.897Z,303.50
2019-05-15T08:48:32.893Z,303.69
2019-05-15T08:49:31.867Z,303.41
2019-05-15T08:50:31.882Z,304.07
2019-05-15T08:51:31.851Z,303.86
2019-05-15T08:52:31.838Z,303.90
2019-05-15T08:53:31.814Z,303.86
2019-05-15T08:54:31.799Z,304.38
2019-05-15T08:55:31.790Z,303.86
2019-05-15T08:56:31.785Z,303.81
2019-05-15T08:57:31.790Z,303.61
2019-05-15T08:58:31.748Z,303.08
2019-05-15T08:59:31.739Z,303.01
2019-05-15T09:00:31.738Z,303.57
2019-05-15T09:01:31.729Z,303.36
2019-05-15T09:02:31.751Z,303.77
2019-05-15T09:03:31.712Z,302.73
2019-05-15T09:04:34.988Z,303.47
2019-05-15T09:05:31.680Z,302.89
2019-05-15T09:06:31.674Z,303.29
2019-05-15T09:07:31.729Z,303.37
2019-05-15T09:08:31.743Z,303.48
2019-05-15T09:09:31.648Z,304.14
2019-05-15T09:10:31.634Z,303.58
2019-05-15T09:11:31.626Z,303.84
2019-05-15T09:12:31.610Z,303.75
2019-05-15T09:13:31.612Z,304.15
2019-05-15T09:14:31.600Z,303.92
2019-05-15T09:15:31.582Z,304.65
2019-05-15T09:16:31.559Z,304.84
2019-05-15T09:17:31.558Z,304.73
2019-05-15T09:18:31.558Z,304.45
2019-05-15T09:19:31.536Z,304.60
2019-05-15T09:20:31.529Z,304.38
2019-05-15T09:21:31.518Z,304.30
2019-05-15T09:22:31.508Z,304.67
2019-05-15T09:23:31.533Z,304.18
2019-05-15T09:24:31.479Z,304.48
2019-05-15T09:25:31.464Z,304.10
2019-05-15T09:26:31.457Z,304.39
2019-05-15T09:27:31.440Z,305.12
2019-05-15T09:28:31.464Z,305.07
2019-05-15T09:29:31.432Z,305.27
2019-05-15T09:30:31.422Z,305.58
2019-05-15T09:31:31.419Z,304.68
2019-05-15T09:32:31.456Z,304.45
2019-05-15T09:33:31.401Z,304.48
2019-05-15T09:34:46.667Z,304.24
2019-05-15T09:35:32.377Z,305.02
2019-05-15T09:36:31.349Z,305.08
2019-05-15T09:37:33.687Z,304.87
2019-05-15T09:38:31.339Z,305.38
2019-05-15T09:39:31.313Z,305.13
2019-05-15T09:40:42.424Z,304.14
2019-05-15T09:41:32.294Z,304.84
2019-05-15T09:42:31.291Z,303.73
2019-05-15T09:43:31.283Z,303.35
2019-05-15T09:44:31.271Z,303.73
2019-05-15T09:45:31.251Z,303.24
2019-05-15T09:46:31.250Z,302.85
2019-05-15T09:47:31.271Z,302.67
2019-05-15T09:48:31.231Z,302.64
2019-05-15T09:49:31.213Z,302.29
2019-05-15T09:50:31.203Z,301.54
2019-05-15T09:51:31.186Z,301.96
2019-05-15T09:52:31.195Z,302.30
2019-05-15T09:53:31.186Z,302.00
2019-05-15T09:54:31.165Z,301.20
2019-05-15T09:55:31.154Z,301.80
2019-05-15T09:56:31.136Z,301.90
2019-05-15T09:57:31.130Z,301.34
2019-05-15T09:58:31.129Z,302.00
2019-05-15T09:59:31.102Z,301.61
2019-05-15T10:00:31.131Z,301.51
2019-05-15T10:01:31.093Z,302.04
2019-05-15T10:02:31.068Z,301.90
2019-05-15T10:03:31.069Z,301.52
2019-05-15T10:04:31.058Z,301.50
2019-05-15T10:05:31.054Z,301.25
2019-05-15T10:06:31.036Z,301.42
2019-05-15T10:07:31.022Z,301.52
2019-05-15T10:08:31.049Z,301.71
2019-05-15T10:09:30.992Z,301.24
2019-05-15T10:10:30.982Z,301.50
2019-05-15T10:11:30.978Z,300.90
2019-05-15T10:12:34.821Z,300.90
2019-05-15T10:13:30.971Z,301.30
2019-05-15T10:14:30.954Z,301.38
2019-05-15T10:15:30.936Z,301.24
2019-05-15T10:16:30.924Z,301.22
2019-05-15T10:17:30.909Z,301.40
2019-05-15T10:18:30.922Z,300.97
2019-05-15T10:19:30.897Z,300.82
2019-05-15T10:20:30.881Z,301.40
2019-05-15T10:21:32.584Z,301.16
2019-05-15T10:22:30.856Z,301.48
2019-05-15T10:23:30.850Z,301.15
2019-05-15T10:24:30.842Z,301.30
2019-05-15T10:25:30.823Z,301.53
2019-05-15T10:26:30.816Z,301.92
2019-05-15T10:27:30.800Z,301.09
2019-05-15T10:28:30.803Z,301.59
2019-05-15T10:29:30.774Z,301.31
2019-05-15T10:30:30.761Z,301.48
2019-05-15T10:31:30.768Z,301.90
2019-05-15T10:32:30.752Z,302.02
2019-05-15T10:33:30.733Z,302.28
2019-05-15T10:34:30.731Z,302.01
2019-05-15T10:35:31.807Z,301.58
2019-05-15T10:36:30.702Z,302.32
2019-05-15T10:37:30.687Z,302.04
2019-05-15T10:38:30.712Z,302.03
2019-05-15T10:39:30.679Z,302.51
2019-05-15T10:40:30.648Z,302.45
2019-05-15T10:41:30.644Z,302.23
2019-05-15T10:42:30.633Z,302.10
2019-05-15T10:43:30.621Z,302.50
2019-05-15T10:44:30.627Z,302.53
2019-05-15T10:45:30.609Z,302.18
2019-05-15T10:46:30.587Z,302.28
2019-05-15T10:47:30.581Z,302.58
2019-05-15T10:48:30.556Z,302.34
2019-05-15T10:49:30.559Z,302.36
2019-05-15T10:50:30.544Z,302.73
2019-05-15T10:51:30.548Z,302.80
2019-05-15T10:52:30.513Z,302.33
2019-05-15T10:53:30.504Z,302.33
2019-05-15T10:54:30.527Z,302.32
2019-05-15T10:55:30.489Z,302.22
2019-05-15T10:56:30.489Z,301.85
2019-05-15T10:57:30.473Z,301.99
2019-05-15T10:58:30.456Z,302.34
2019-05-15T10:59:30.459Z,302.33
2019-05-15T11:00:30.429Z,302.05
2019-05-15T11:01:30.416Z,302.67
2019-05-15T11:02:30.416Z,303.33
2019-05-15T11:03:30.396Z,302.50
2019-05-15T11:04:30.408Z,302.75
2019-05-15T11:05:40.648Z,302.86
2019-05-15T11:06:31.365Z,302.44
2019-05-15T11:07:30.356Z,302.27
2019-05-15T11:08:30.351Z,302.14
2019-05-15T11:09:30.359Z,301.60
2019-05-15T11:10:30.324Z,302.10
2019-05-15T11:11:30.337Z,302.30
2019-05-15T11:12:30.294Z,302.78
2019-05-15T11:13:30.282Z,302.22
2019-05-15T11:14:30.303Z,302.18
2019-05-15T11:15:30.263Z,302.19
2019-05-15T11:16:30.265Z,302.12
2019-05-15T11:17:31.536Z,302.29
2019-05-15T11:18:30.738Z,302.42
2019-05-15T11:19:35.916Z,302.08
2019-05-15T11:20:31.211Z,302.30
2019-05-15T11:21:30.198Z,302.14
2019-05-15T11:22:30.205Z,302.49
2019-05-15T11:23:30.183Z,302.15
2019-05-15T11:24:32.397Z,302.40
2019-05-15T11:25:30.245Z,302.43
2019-05-15T11:26:33.469Z,302.68
2019-05-15T11:27:31.323Z,302.67
2019-05-15T11:28:32.327Z,302.83
2019-05-15T11:29:30.129Z,302.19
2019-05-15T11:30:30.119Z,302.32
2019-05-15T11:31:30.093Z,303.08
2019-05-15T11:32:30.077Z,302.61
2019-05-15T11:33:30.068Z,302.44
2019-05-15T11:34:30.073Z,302.66
2019-05-15T11:35:30.050Z,302.00
2019-05-15T11:36:30.041Z,303.10
2019-05-15T11:37:30.029Z,303.40
2019-05-15T11:38:30.008Z,302.97
2019-05-15T11:39:30.040Z,302.96
2019-05-15T11:40:30.015Z,303.22
2019-05-15T11:41:30.011Z,302.60
2019-05-15T11:42:29.968Z,303.39
2019-05-15T11:43:29.960Z,302.80
2019-05-15T11:44:30.551Z,303.28
2019-05-15T11:45:29.942Z,303.64
2019-05-15T11:46:29.954Z,303.79
2019-05-15T11:47:29.912Z,303.74
2019-05-15T11:48:30.233Z,303.37
2019-05-15T11:49:29.945Z,304.24
2019-05-15T11:50:29.892Z,304.34
2019-05-15T11:51:29.870Z,304.06
2019-05-15T11:52:29.867Z,304.16
2019-05-15T11:53:29.849Z,304.06
2019-05-15T11:54:29.838Z,304.04
2019-05-15T11:55:29.839Z,304.60
2019-05-15T11:56:29.852Z,304.04
2019-05-15T11:57:42.591Z,304.55
2019-05-15T11:58:30.790Z,305.08
2019-05-15T11:59:30.217Z,305.01
2019-05-15T12:00:30.433Z,304.96
2019-05-15T12:01:29.762Z,304.96
2019-05-15T12:02:29.765Z,304.87
2019-05-15T12:03:29.742Z,305.02
2019-05-15T12:04:33.768Z,304.10
2019-05-15T12:05:29.726Z,304.60
2019-05-15T12:06:29.694Z,304.40
2019-05-15T12:07:29.690Z,304.55
2019-05-15T12:08:29.683Z,304.35
2019-05-15T12:09:29.690Z,304.62
2019-05-15T12:10:29.670Z,304.23
2019-05-15T12:11:36.628Z,304.06
2019-05-15T12:12:32.049Z,303.61
2019-05-15T12:13:29.629Z,303.37
2019-05-15T12:14:29.867Z,304.26
2019-05-15T12:15:29.618Z,303.50
2019-05-15T12:16:29.604Z,303.67
2019-05-15T12:17:29.580Z,303.41
2019-05-15T12:18:29.567Z,303.72
2019-05-15T12:19:29.560Z,302.96
2019-05-15T12:20:29.561Z,302.70
2019-05-15T12:21:29.544Z,303.00
2019-05-15T12:22:29.525Z,303.19
2019-05-15T12:23:29.583Z,302.95
2019-05-15T12:24:35.339Z,303.43
2019-05-15T12:25:31.976Z,302.89
2019-05-15T12:26:29.563Z,303.53
2019-05-15T12:27:29.498Z,302.98
2019-05-15T12:28:29.785Z,303.39